Navitec — VRMR3 — position and weather

sailwx.info

Track history (hours):
 
Tides and Currents Weather Stations Pressure Air Temp Water Temp Dewpoint Dewpoint Depression Visibility Wind Speed Wind Dir Waves Ship Positions

Navitec

Last reported at 2017-Dec-08 00:01 UTC. Time now 2017-Dec-14 00:14 UTC.
Position S 26°06' E 153°59'.

Length 199 m; draft 10.5 m.

Type: Cargo ship. MMSI: 477219500.

Date/timePositionNaut miles runAvg speedWind from/ knotsBaromVisibWave heightAir tempDewpointWater temp
2017-Dec-08 00:01S 26°06' E 153°59'012.2
2017-Dec-08 00:00S 26°06' E 153°59'611.6
2017-Dec-07 23:30S 26°12' E 153°58'711.4
2017-Dec-07 22:56S 26°19' E 153°58'511.1
2017-Dec-07 22:29S 26°24' E 153°58'511.0
2017-Dec-07 22:01S 26°29' E 153°57'611.1
2017-Dec-07 21:30S 26°34' E 153°57'611.1
2017-Dec-07 21:00S 26°40' E 153°56'511.0
2017-Dec-07 20:31S 26°45' E 153°56'511.0
2017-Dec-07 20:01S 26°51' E 153°56'510.9
2017-Dec-07 19:30S 26°56' E 153°55'510.6
2017-Dec-07 19:01S 27°01' E 153°55'610.5
2017-Dec-07 18:26S 27°08' E 153°54'410.5
2017-Dec-07 18:00S 27°12' E 153°54'1410.3
2017-Dec-07 16:38S 27°26' E 153°53'110.0
2017-Dec-07 16:31S 27°27' E 153°53'610.0
2017-Dec-07 15:56S 27°33' E 153°52'8 9.7
2017-Dec-07 15:09S 27°41' E 153°52'3 9.6
2017-Dec-07 14:52S 27°43' E 153°51'4 9.3
2017-Dec-07 14:26S 27°47' E 153°51'4 9.0
2017-Dec-07 13:59S 27°51' E 153°51'4 8.7
2017-Dec-07 13:30S 27°56' E 153°50'5 9.4
2017-Dec-07 13:00S 28°00' E 153°50'611.1
2017-Dec-07 12:30S 28°06' E 153°49'611.5
2017-Dec-07 12:00S 28°11' E 153°48'611.6
2017-Dec-07 11:31S 28°17' E 153°48'511.0
2017-Dec-07 11:01S 28°23' E 153°47'510.7
2017-Dec-07 10:31S 28°28' E 153°46'510.6
2017-Dec-07 10:00S 28°33' E 153°46'510.4
2017-Dec-07 09:31S 28°38' E 153°45'510.2
2017-Dec-07 09:00S 28°43' E 153°45'510.1
2017-Dec-07 08:30S 28°48' E 153°44'510.3
2017-Dec-07 08:01S 28°54' E 153°43'510.3
2017-Dec-07 07:31S 28°59' E 153°42'510.3
2017-Dec-07 07:01S 29°04' E 153°42'510.3
2017-Dec-07 06:30S 29°09' E 153°41'510.2
2017-Dec-07 06:01S 29°14' E 153°40'510.4
2017-Dec-07 05:31S 29°19' E 153°40'610.6
2017-Dec-07 04:57S 29°25' E 153°40'610.5
2017-Dec-07 04:24S 29°31' E 153°38'  
2017-Nov-30 18:17S 40°01' E 147°03'512.9
2017-Nov-30 17:54S 39°56' E 147°05'1512.2
2017-Nov-30 16:42S 39°43' E 147°13'712.3
2017-Nov-30 16:10S 39°38' E 147°19'311.8
2017-Nov-30 15:56S 39°36' E 147°21'611.6
2017-Nov-30 15:22S 39°31' E 147°27'911.4
2017-Nov-30 14:37S 39°26' E 147°35'211.3
2017-Nov-30 14:29S 39°25' E 147°37'711.3
2017-Nov-30 13:49S 39°19' E 147°44'411.3
2017-Nov-30 13:29S 39°17' E 147°48'611.5
2017-Nov-30 12:58S 39°13' E 147°53'611.6
2017-Nov-30 12:25S 39°08' E 147°59'511.7
2017-Nov-30 11:57S 39°05' E 148°04'512.0
2017-Nov-30 11:30S 39°01' E 148°09'612.4
2017-Nov-30 11:00S 38°56' E 148°15'713.1
2017-Nov-30 10:29S 38°52' E 148°21'713.8
2017-Nov-30 09:58S 38°47' E 148°28'713.9
2017-Nov-30 09:29S 38°42' E 148°34'713.8
2017-Nov-30 09:00S 38°38' E 148°40'914.2
2017-Nov-30 08:23S 38°32' E 148°48'613.7
2017-Nov-30 07:57S 38°27' E 148°53'613.1
2017-Nov-30 07:30S 38°23' E 148°59'912.7
2017-Nov-30 06:50S 38°17' E 149°07'512.9
2017-Nov-30 06:25S 38°14' E 149°12'513.3
2017-Nov-30 06:00S 38°10' E 149°16'713.3
2017-Nov-30 05:30S 38°05' E 149°23'713.5
2017-Nov-30 05:00S 38°01' E 149°29'713.8
2017-Nov-30 04:30S 37°56' E 149°35'25513.6
2017-Nov-29 09:45S 33°59' E 151°32'313.9
2017-Nov-29 09:31S 33°56' E 151°33'814.0
2017-Nov-29 08:57S 33°49' E 151°36'714.2
2017-Nov-29 08:28S 33°43' E 151°40'3314.3
2017-Nov-29 06:10S 33°15' E 152°02'214.1
2017-Nov-29 06:00S 33°13' E 152°03'714.2
2017-Nov-29 05:30S 33°08' E 152°08'714.0
2017-Nov-29 05:00S 33°02' E 152°12'714.1
2017-Nov-29 04:30S 32°55' E 152°16'714.0
2017-Nov-29 04:00S 32°49' E 152°21'713.5
2017-Nov-29 03:30S 32°44' E 152°25'713.2
2017-Nov-29 03:00S 32°38' E 152°30'612.8
2017-Nov-29 02:30S 32°33' E 152°34'612.9
2017-Nov-29 02:00S 32°28' E 152°38'2313.7
2017-Nov-29 00:21S 32°07' E 152°48'20414.4
2017-Nov-28 10:11S 28°48' E 153°44'314.3
2017-Nov-28 09:57S 28°45' E 153°45'614.2
2017-Nov-28 09:30S 28°39' E 153°45'814.0
2017-Nov-28 08:55S 28°31' E 153°46'613.8
2017-Nov-28 08:30S 28°25' E 153°46'713.6
2017-Nov-28 08:00S 28°18' E 153°47'713.2
2017-Nov-28 07:30S 28°12' E 153°48'612.9
2017-Nov-28 07:00S 28°05' E 153°49'612.7
2017-Nov-28 06:30S 27°59' E 153°49'612.8
2017-Nov-28 06:01S 27°53' E 153°51'612.7
2017-Nov-28 05:30S 27°46' E 153°51'1212.2
2017-Nov-28 04:30S 27°34' E 153°51'  
Track history (hours):
 
Tides and Currents Weather Stations Pressure Air Temp Water Temp Dewpoint Dewpoint Depression Visibility Wind Speed Wind Dir Waves Ship Positions

Navitec

Last reported at 2017-Dec-08 00:01 UTC. Time now 2017-Dec-14 00:14 UTC.
Position S 26°06' E 153°59'.

Length 199 m; draft 10.5 m.

Type: Cargo ship. MMSI: 477219500.

Date/timePositionNaut miles runAvg speedWind from/ knotsBaromVisibWave heightAir tempDewpointWater temp
2017-Dec-08 00:01S 26°06' E 153°59'012.2
2017-Dec-08 00:00S 26°06' E 153°59'611.6
2017-Dec-07 23:30S 26°12' E 153°58'711.4
2017-Dec-07 22:56S 26°19' E 153°58'511.1
2017-Dec-07 22:29S 26°24' E 153°58'511.0
2017-Dec-07 22:01S 26°29' E 153°57'611.1
2017-Dec-07 21:30S 26°34' E 153°57'611.1
2017-Dec-07 21:00S 26°40' E 153°56'511.0
2017-Dec-07 20:31S 26°45' E 153°56'511.0
2017-Dec-07 20:01S 26°51' E 153°56'510.9
2017-Dec-07 19:30S 26°56' E 153°55'510.6
2017-Dec-07 19:01S 27°01' E 153°55'610.5
2017-Dec-07 18:26S 27°08' E 153°54'410.5
2017-Dec-07 18:00S 27°12' E 153°54'1410.3
2017-Dec-07 16:38S 27°26' E 153°53'110.0
2017-Dec-07 16:31S 27°27' E 153°53'610.0
2017-Dec-07 15:56S 27°33' E 153°52'8 9.7
2017-Dec-07 15:09S 27°41' E 153°52'3 9.6
2017-Dec-07 14:52S 27°43' E 153°51'4 9.3
2017-Dec-07 14:26S 27°47' E 153°51'4 9.0
2017-Dec-07 13:59S 27°51' E 153°51'4 8.7
2017-Dec-07 13:30S 27°56' E 153°50'5 9.4
2017-Dec-07 13:00S 28°00' E 153°50'611.1
2017-Dec-07 12:30S 28°06' E 153°49'611.5
2017-Dec-07 12:00S 28°11' E 153°48'611.6
2017-Dec-07 11:31S 28°17' E 153°48'511.0
2017-Dec-07 11:01S 28°23' E 153°47'510.7
2017-Dec-07 10:31S 28°28' E 153°46'510.6
2017-Dec-07 10:00S 28°33' E 153°46'510.4
2017-Dec-07 09:31S 28°38' E 153°45'510.2
2017-Dec-07 09:00S 28°43' E 153°45'510.1
2017-Dec-07 08:30S 28°48' E 153°44'510.3
2017-Dec-07 08:01S 28°54' E 153°43'510.3
2017-Dec-07 07:31S 28°59' E 153°42'510.3
2017-Dec-07 07:01S 29°04' E 153°42'510.3
2017-Dec-07 06:30S 29°09' E 153°41'510.2
2017-Dec-07 06:01S 29°14' E 153°40'510.4
2017-Dec-07 05:31S 29°19' E 153°40'610.6
2017-Dec-07 04:57S 29°25' E 153°40'610.5
2017-Dec-07 04:24S 29°31' E 153°38'  
2017-Nov-30 18:17S 40°01' E 147°03'512.9
2017-Nov-30 17:54S 39°56' E 147°05'1512.2
2017-Nov-30 16:42S 39°43' E 147°13'712.3
2017-Nov-30 16:10S 39°38' E 147°19'311.8
2017-Nov-30 15:56S 39°36' E 147°21'611.6
2017-Nov-30 15:22S 39°31' E 147°27'911.4
2017-Nov-30 14:37S 39°26' E 147°35'211.3
2017-Nov-30 14:29S 39°25' E 147°37'711.3
2017-Nov-30 13:49S 39°19' E 147°44'411.3
2017-Nov-30 13:29S 39°17' E 147°48'611.5
2017-Nov-30 12:58S 39°13' E 147°53'611.6
2017-Nov-30 12:25S 39°08' E 147°59'511.7
2017-Nov-30 11:57S 39°05' E 148°04'512.0
2017-Nov-30 11:30S 39°01' E 148°09'612.4
2017-Nov-30 11:00S 38°56' E 148°15'713.1
2017-Nov-30 10:29S 38°52' E 148°21'713.8
2017-Nov-30 09:58S 38°47' E 148°28'713.9
2017-Nov-30 09:29S 38°42' E 148°34'713.8
2017-Nov-30 09:00S 38°38' E 148°40'914.2
2017-Nov-30 08:23S 38°32' E 148°48'613.7
2017-Nov-30 07:57S 38°27' E 148°53'613.1
2017-Nov-30 07:30S 38°23' E 148°59'912.7
2017-Nov-30 06:50S 38°17' E 149°07'512.9
2017-Nov-30 06:25S 38°14' E 149°12'513.3
2017-Nov-30 06:00S 38°10' E 149°16'713.3
2017-Nov-30 05:30S 38°05' E 149°23'713.5
2017-Nov-30 05:00S 38°01' E 149°29'713.8
2017-Nov-30 04:30S 37°56' E 149°35'25513.6
2017-Nov-29 09:45S 33°59' E 151°32'313.9
2017-Nov-29 09:31S 33°56' E 151°33'814.0
2017-Nov-29 08:57S 33°49' E 151°36'714.2
2017-Nov-29 08:28S 33°43' E 151°40'3314.3
2017-Nov-29 06:10S 33°15' E 152°02'214.1
2017-Nov-29 06:00S 33°13' E 152°03'714.2
2017-Nov-29 05:30S 33°08' E 152°08'714.0
2017-Nov-29 05:00S 33°02' E 152°12'714.1
2017-Nov-29 04:30S 32°55' E 152°16'714.0
2017-Nov-29 04:00S 32°49' E 152°21'713.5
2017-Nov-29 03:30S 32°44' E 152°25'713.2
2017-Nov-29 03:00S 32°38' E 152°30'612.8
2017-Nov-29 02:30S 32°33' E 152°34'612.9
2017-Nov-29 02:00S 32°28' E 152°38'2313.7
2017-Nov-29 00:21S 32°07' E 152°48'20414.4
2017-Nov-28 10:11S 28°48' E 153°44'314.3
2017-Nov-28 09:57S 28°45' E 153°45'614.2
2017-Nov-28 09:30S 28°39' E 153°45'814.0
2017-Nov-28 08:55S 28°31' E 153°46'613.8
2017-Nov-28 08:30S 28°25' E 153°46'713.6
2017-Nov-28 08:00S 28°18' E 153°47'713.2
2017-Nov-28 07:30S 28°12' E 153°48'612.9
2017-Nov-28 07:00S 28°05' E 153°49'612.7
2017-Nov-28 06:30S 27°59' E 153°49'612.8
2017-Nov-28 06:01S 27°53' E 153°51'612.7
2017-Nov-28 05:30S 27°46' E 153°51'1212.2
2017-Nov-28 04:30S 27°34' E 153°51'  

Dump ship's entire track history